createdAt,value
2019-05-22T00:01:44.594Z,10.44
2019-05-22T00:04:23.997Z,10.49
2019-05-22T00:06:54.721Z,10.57
2019-05-22T00:09:24.794Z,10.60
2019-05-22T00:11:56.603Z,10.66
2019-05-22T00:14:27.600Z,10.68
2019-05-22T00:16:56.632Z,10.69
2019-05-22T00:19:25.304Z,10.66
2019-05-22T00:22:01.271Z,10.61
2019-05-22T00:24:29.953Z,10.59
2019-05-22T00:27:00.583Z,10.60
2019-05-22T00:29:30.822Z,10.66
2019-05-22T00:31:59.414Z,10.67
2019-05-22T00:34:28.040Z,10.69
2019-05-22T00:36:56.772Z,10.68
2019-05-22T00:39:27.214Z,10.68
2019-05-22T00:41:56.358Z,10.70
2019-05-22T00:44:26.663Z,10.73
2019-05-22T00:46:55.781Z,10.72
2019-05-22T00:49:24.693Z,10.69
2019-05-22T00:52:04.280Z,10.65
2019-05-22T00:54:36.934Z,10.63
2019-05-22T00:57:07.513Z,10.63
2019-05-22T00:59:37.724Z,10.66
2019-05-22T01:02:07.860Z,10.65
2019-05-22T01:04:43.315Z,10.66
2019-05-22T01:07:18.825Z,10.60
2019-05-22T01:09:48.861Z,10.59
2019-05-22T01:12:27.275Z,10.58
2019-05-22T01:14:58.846Z,10.60
2019-05-22T01:17:29.756Z,10.66
2019-05-22T01:20:01.098Z,10.71
2019-05-22T01:22:31.323Z,10.74
2019-05-22T01:25:01.166Z,10.74
2019-05-22T01:27:30.172Z,10.74
2019-05-22T01:30:00.025Z,10.76
2019-05-22T01:32:33.407Z,10.75
2019-05-22T01:35:02.176Z,10.75
2019-05-22T01:37:30.745Z,10.74
2019-05-22T01:40:12.166Z,10.73
2019-05-22T01:42:41.783Z,10.71
2019-05-22T01:45:12.192Z,10.76
2019-05-22T01:47:51.054Z,10.77
2019-05-22T01:50:24.226Z,10.77
2019-05-22T01:52:55.031Z,10.78
2019-05-22T01:55:23.710Z,10.75
2019-05-22T01:57:53.238Z,10.78
2019-05-22T02:00:22.365Z,10.82
2019-05-22T02:02:52.240Z,10.81
2019-05-22T02:05:22.891Z,10.73
2019-05-22T02:07:51.726Z,10.66
2019-05-22T02:10:27.143Z,10.59
2019-05-22T02:12:59.516Z,10.53
2019-05-22T02:15:28.269Z,10.51
2019-05-22T02:17:57.661Z,10.47
2019-05-22T02:20:28.071Z,10.42
2019-05-22T02:22:57.488Z,10.42
2019-05-22T02:25:26.630Z,10.45
2019-05-22T02:27:56.802Z,10.45
2019-05-22T02:30:27.776Z,10.44
2019-05-22T02:32:56.315Z,10.45
2019-05-22T02:35:25.469Z,10.50
2019-05-22T02:37:54.804Z,10.52
2019-05-22T02:40:33.651Z,10.54
2019-05-22T02:43:02.563Z,10.51
2019-05-22T02:45:31.524Z,10.44
2019-05-22T02:48:02.354Z,10.37
2019-05-22T02:50:33.077Z,10.35
2019-05-22T02:53:03.544Z,10.40
2019-05-22T02:55:32.695Z,10.43
2019-05-22T02:58:03.737Z,10.44
2019-05-22T03:00:38.394Z,10.41
2019-05-22T03:03:07.138Z,10.38
2019-05-22T03:05:36.109Z,10.39
2019-05-22T03:08:05.618Z,10.40
2019-05-22T03:10:34.960Z,10.43
2019-05-22T03:13:04.200Z,10.45
2019-05-22T03:15:32.795Z,10.49
2019-05-22T03:18:02.734Z,10.50
2019-05-22T03:20:33.256Z,10.50
2019-05-22T03:23:19.295Z,10.53
2019-05-22T03:25:47.894Z,10.54
2019-05-22T03:28:17.164Z,10.57
2019-05-22T03:30:47.261Z,10.56
2019-05-22T03:33:16.332Z,10.55
2019-05-22T03:35:48.548Z,10.57
2019-05-22T03:38:19.162Z,10.57
2019-05-22T03:40:50.857Z,10.57
2019-05-22T03:43:28.352Z,10.57
2019-05-22T03:45:59.074Z,10.57
2019-05-22T03:48:30.614Z,10.53
2019-05-22T03:51:07.883Z,10.50
2019-05-22T03:53:37.287Z,10.47
2019-05-22T03:56:05.793Z,10.46
2019-05-22T03:58:34.645Z,10.46
2019-05-22T04:01:04.265Z,10.45
2019-05-22T04:03:33.040Z,10.46
2019-05-22T04:06:01.604Z,10.44
2019-05-22T04:08:31.030Z,10.48
2019-05-22T04:11:03.014Z,10.52
2019-05-22T04:13:33.307Z,10.53
2019-05-22T04:16:04.604Z,10.54
2019-05-22T04:18:33.461Z,10.55
2019-05-22T04:21:03.399Z,10.53
2019-05-22T04:23:32.325Z,10.54
2019-05-22T04:26:01.707Z,10.56
2019-05-22T04:28:31.272Z,10.56
2019-05-22T04:31:00.600Z,10.57
2019-05-22T04:33:31.000Z,10.58
2019-05-22T04:36:01.621Z,10.59
2019-05-22T04:38:31.487Z,10.57
2019-05-22T04:41:02.237Z,10.55
2019-05-22T04:43:34.070Z,10.55
2019-05-22T04:46:03.656Z,10.52
2019-05-22T04:48:32.800Z,10.55
2019-05-22T04:51:05.637Z,10.53
2019-05-22T04:53:34.298Z,10.57
2019-05-22T04:56:02.802Z,10.62
2019-05-22T04:58:31.969Z,10.63
2019-05-22T05:01:00.536Z,10.59
2019-05-22T05:03:30.102Z,10.59
2019-05-22T05:06:00.048Z,10.55
2019-05-22T05:08:29.380Z,10.50
2019-05-22T05:10:59.650Z,10.50
2019-05-22T05:13:28.322Z,10.53
2019-05-22T05:15:56.898Z,10.53
2019-05-22T05:18:26.228Z,10.58
2019-05-22T05:20:54.768Z,10.63
2019-05-22T05:23:23.364Z,10.65
2019-05-22T05:25:52.117Z,10.65
2019-05-22T05:28:21.996Z,10.66
2019-05-22T05:30:50.680Z,10.69
2019-05-22T05:33:19.664Z,10.73
2019-05-22T05:35:49.786Z,10.74
2019-05-22T05:38:20.167Z,10.76
2019-05-22T05:40:48.926Z,10.78
2019-05-22T05:43:17.663Z,10.78
2019-05-22T05:45:49.985Z,10.79
2019-05-22T05:48:21.184Z,10.81
2019-05-22T05:51:09.533Z,10.84
2019-05-22T05:54:01.476Z,10.85
2019-05-22T05:56:31.857Z,10.89
2019-05-22T05:59:03.056Z,10.85
2019-05-22T06:01:33.351Z,10.85
2019-05-22T06:04:03.385Z,10.87
2019-05-22T06:06:36.593Z,10.87
2019-05-22T06:09:08.646Z,10.93
2019-05-22T06:11:48.941Z,10.96
2019-05-22T06:14:29.990Z,10.97
2019-05-22T06:17:04.899Z,10.96
2019-05-22T06:19:33.544Z,10.92
2019-05-22T06:22:02.129Z,10.91
2019-05-22T06:24:37.154Z,10.93
2019-05-22T06:27:15.977Z,10.95
2019-05-22T06:30:00.792Z,11.00
2019-05-22T06:32:38.483Z,11.04
2019-05-22T06:35:09.906Z,11.04
2019-05-22T06:38:03.793Z,11.08
2019-05-22T06:40:33.308Z,11.08
2019-05-22T06:43:24.711Z,11.08
2019-05-22T06:45:53.930Z,11.08
2019-05-22T06:48:22.599Z,11.13
2019-05-22T06:50:51.858Z,11.12
2019-05-22T06:53:20.795Z,11.10
2019-05-22T06:55:50.269Z,11.09
2019-05-22T06:58:19.730Z,11.10
2019-05-22T07:00:48.579Z,11.20
2019-05-22T07:03:17.871Z,11.29
2019-05-22T07:05:46.633Z,11.37
2019-05-22T07:08:16.836Z,11.44
2019-05-22T07:10:45.490Z,11.48
2019-05-22T07:13:16.876Z,11.47
2019-05-22T07:15:47.421Z,11.46
2019-05-22T07:18:18.293Z,11.48
2019-05-22T07:20:49.554Z,11.52
2019-05-22T07:23:21.435Z,11.56
2019-05-22T07:25:51.860Z,11.60
2019-05-22T07:28:26.838Z,11.66
2019-05-22T07:30:56.346Z,11.71
2019-05-22T07:33:26.114Z,11.76
2019-05-22T07:36:16.189Z,11.74
2019-05-22T07:38:26.035Z,11.71
2019-05-22T07:40:55.779Z,11.72
2019-05-22T07:43:24.501Z,11.78
2019-05-22T07:45:54.217Z,11.84
2019-05-22T07:48:26.056Z,11.86
2019-05-22T07:50:56.248Z,11.91
2019-05-22T07:53:26.685Z,11.95
2019-05-22T07:55:56.391Z,11.99
2019-05-22T07:58:26.669Z,12.01
2019-05-22T08:00:59.458Z,12.08
2019-05-22T08:03:29.000Z,12.17
2019-05-22T08:05:59.318Z,12.23
2019-05-22T08:08:29.815Z,12.27
2019-05-22T08:10:59.271Z,12.23
2019-05-22T08:13:29.008Z,12.15
2019-05-22T08:15:57.891Z,12.05
2019-05-22T08:18:28.203Z,12.07
2019-05-22T08:20:56.932Z,12.21
2019-05-22T08:23:27.418Z,12.27
2019-05-22T08:25:58.705Z,12.42
2019-05-22T08:28:31.825Z,12.49
2019-05-22T08:31:01.433Z,12.59
2019-05-22T08:33:32.076Z,12.68
2019-05-22T08:36:01.446Z,12.77
2019-05-22T08:38:32.855Z,12.88
2019-05-22T08:41:03.168Z,12.94
2019-05-22T08:43:55.859Z,12.95
2019-05-22T08:46:05.439Z,13.00
2019-05-22T08:48:36.358Z,13.02
2019-05-22T08:51:06.178Z,13.00
2019-05-22T08:53:46.826Z,13.00
2019-05-22T08:56:06.429Z,13.04
2019-05-22T08:58:38.910Z,13.02
2019-05-22T09:01:08.402Z,13.18
2019-05-22T09:03:37.602Z,13.24
2019-05-22T09:06:06.172Z,13.26
2019-05-22T09:08:35.012Z,13.31
2019-05-22T09:11:04.185Z,13.41
2019-05-22T09:13:32.928Z,13.54
2019-05-22T09:16:02.225Z,13.68
2019-05-22T09:18:31.678Z,13.67
2019-05-22T09:21:00.264Z,13.62
2019-05-22T09:23:28.912Z,13.57
2019-05-22T09:25:58.132Z,13.70
2019-05-22T09:28:27.112Z,13.82
2019-05-22T09:30:55.790Z,13.73
2019-05-22T09:33:26.111Z,13.68
2019-05-22T09:35:54.679Z,13.57
2019-05-22T09:38:23.175Z,13.60
2019-05-22T09:40:52.233Z,13.69
2019-05-22T09:43:21.082Z,13.92
2019-05-22T09:45:49.655Z,14.10
2019-05-22T09:48:20.157Z,14.17
2019-05-22T09:50:48.867Z,14.19
2019-05-22T09:53:17.986Z,14.30
2019-05-22T09:55:47.610Z,14.43
2019-05-22T09:58:16.344Z,14.51
2019-05-22T10:00:45.072Z,14.41
2019-05-22T10:03:13.735Z,14.36
2019-05-22T10:05:42.544Z,14.42
2019-05-22T10:08:11.211Z,14.46
2019-05-22T10:10:39.772Z,14.60
2019-05-22T10:13:08.735Z,14.65
2019-05-22T10:15:37.520Z,14.68
2019-05-22T10:18:06.068Z,14.79
2019-05-22T10:20:35.110Z,14.77
2019-05-22T10:23:14.873Z,14.84
2019-05-22T10:25:35.160Z,14.89
2019-05-22T10:28:06.630Z,15.00
2019-05-22T10:30:35.531Z,15.13
2019-05-22T10:33:04.667Z,15.21
2019-05-22T10:35:33.371Z,15.17
2019-05-22T10:38:01.919Z,15.21
2019-05-22T10:40:30.580Z,15.19
2019-05-22T10:42:59.138Z,15.19
2019-05-22T10:45:28.326Z,15.27
2019-05-22T10:47:57.586Z,15.20
2019-05-22T10:50:26.623Z,15.30
2019-05-22T10:52:55.847Z,15.40
2019-05-22T10:55:25.118Z,15.52
2019-05-22T10:57:54.423Z,15.70
2019-05-22T11:00:24.393Z,15.92
2019-05-22T11:02:53.351Z,15.94
2019-05-22T11:05:22.542Z,15.88
2019-05-22T11:07:52.409Z,15.86
2019-05-22T11:10:24.407Z,16.01
2019-05-22T11:12:53.145Z,16.11
2019-05-22T11:15:23.165Z,16.27
2019-05-22T11:17:52.943Z,16.36
2019-05-22T11:20:22.120Z,16.46
2019-05-22T11:22:50.800Z,16.71
2019-05-22T11:25:20.388Z,17.12
2019-05-22T11:27:49.242Z,17.37
2019-05-22T11:30:19.446Z,17.42
2019-05-22T11:32:48.769Z,17.34
2019-05-22T11:35:18.495Z,17.31
2019-05-22T11:37:48.130Z,17.08
2019-05-22T11:40:18.039Z,17.09
2019-05-22T11:42:46.833Z,17.09
2019-05-22T11:45:16.260Z,17.13
2019-05-22T11:47:44.925Z,17.17
2019-05-22T11:50:16.320Z,17.12
2019-05-22T11:52:46.624Z,17.22
2019-05-22T11:55:16.731Z,17.28
2019-05-22T11:57:47.023Z,17.37
2019-05-22T12:00:19.280Z,17.57
2019-05-22T12:02:48.510Z,17.40
2019-05-22T12:05:17.344Z,17.35
2019-05-22T12:07:46.754Z,17.23
2019-05-22T12:10:16.421Z,17.27
2019-05-22T12:12:45.563Z,17.19
2019-05-22T12:15:15.723Z,17.02
2019-05-22T12:17:44.965Z,16.93
2019-05-22T12:20:14.710Z,16.85
2019-05-22T12:22:43.783Z,16.83
2019-05-22T12:25:15.274Z,16.92
2019-05-22T12:27:43.884Z,16.93
2019-05-22T12:30:13.816Z,16.98
2019-05-22T12:32:42.479Z,17.07
2019-05-22T12:35:14.287Z,17.11
2019-05-22T12:37:43.036Z,17.02
2019-05-22T12:40:14.279Z,17.18
2019-05-22T12:42:44.375Z,17.36
2019-05-22T12:45:13.782Z,17.35
2019-05-22T12:47:43.382Z,17.30
2019-05-22T12:50:15.444Z,17.39
2019-05-22T12:52:48.735Z,17.38
2019-05-22T12:55:19.657Z,17.36
2019-05-22T12:57:49.486Z,17.72
2019-05-22T13:00:22.490Z,18.10
2019-05-22T13:02:52.803Z,18.52
2019-05-22T13:05:21.692Z,18.87
2019-05-22T13:07:51.348Z,19.08
2019-05-22T13:10:22.327Z,18.79
2019-05-22T13:12:51.575Z,18.63
2019-05-22T13:15:23.169Z,18.46
2019-05-22T13:17:53.872Z,18.28
2019-05-22T13:20:41.270Z,18.20
2019-05-22T13:22:55.766Z,18.28
2019-05-22T13:25:27.317Z,18.35
2019-05-22T13:27:56.930Z,18.35
2019-05-22T13:30:28.679Z,18.32
2019-05-22T13:32:57.096Z,18.19
2019-05-22T13:35:26.794Z,18.19
2019-05-22T13:37:57.210Z,18.29
2019-05-22T13:40:28.149Z,18.33
2019-05-22T13:42:58.826Z,18.32
2019-05-22T13:45:30.714Z,18.34
2019-05-22T13:47:59.383Z,18.32
2019-05-22T13:50:40.479Z,18.36
2019-05-22T13:53:10.918Z,18.35
2019-05-22T13:55:39.643Z,18.35
2019-05-22T13:58:08.962Z,18.20
2019-05-22T14:00:37.735Z,18.19
2019-05-22T14:03:06.577Z,18.33
2019-05-22T14:05:37.866Z,18.47
2019-05-22T14:08:08.798Z,18.54
2019-05-22T14:10:38.850Z,18.71
2019-05-22T14:13:07.394Z,18.93
2019-05-22T14:15:48.730Z,19.00
2019-05-22T14:18:06.891Z,19.13
2019-05-22T14:20:35.608Z,19.33
2019-05-22T14:23:04.608Z,19.63
2019-05-22T14:25:33.667Z,19.79
2019-05-22T14:28:02.977Z,19.64
2019-05-22T14:30:31.864Z,19.43
2019-05-22T14:33:04.198Z,19.34
2019-05-22T14:35:46.959Z,19.26
2019-05-22T14:38:04.296Z,19.24
2019-05-22T14:40:33.607Z,19.21
2019-05-22T14:43:02.506Z,19.48
2019-05-22T14:45:31.331Z,19.54
2019-05-22T14:48:00.307Z,19.44
2019-05-22T14:50:32.784Z,19.42
2019-05-22T14:53:00.294Z,19.26
2019-05-22T14:55:30.019Z,19.11
2019-05-22T14:57:59.468Z,18.94
2019-05-22T15:00:29.606Z,18.88
2019-05-22T15:02:59.645Z,18.90
2019-05-22T15:05:28.648Z,19.08
2019-05-22T15:07:57.545Z,19.15
2019-05-22T15:10:26.670Z,19.09
2019-05-22T15:12:55.245Z,19.05
2019-05-22T15:15:24.677Z,19.01
2019-05-22T15:17:53.309Z,19.02
2019-05-22T15:20:25.412Z,19.02
2019-05-22T15:22:56.297Z,18.90
2019-05-22T15:25:24.480Z,18.81
2019-05-22T15:27:53.308Z,18.73
2019-05-22T15:30:22.076Z,18.78
2019-05-22T15:32:50.906Z,18.79
2019-05-22T15:35:19.845Z,18.77
2019-05-22T15:37:48.565Z,18.74
2019-05-22T15:40:19.464Z,18.77
2019-05-22T15:42:48.826Z,18.77
2019-05-22T15:45:21.910Z,18.74
2019-05-22T15:47:56.239Z,18.78
2019-05-22T15:50:28.863Z,18.75
2019-05-22T15:53:02.559Z,18.72
2019-05-22T15:55:34.138Z,18.71
2019-05-22T15:58:05.366Z,18.74
2019-05-22T16:00:36.847Z,18.71
2019-05-22T16:03:11.971Z,18.64
2019-05-22T16:05:42.273Z,18.56
2019-05-22T16:08:12.330Z,18.45
2019-05-22T16:10:42.995Z,18.42
2019-05-22T16:13:14.787Z,18.37
2019-05-22T16:15:45.411Z,18.34
2019-05-22T16:18:14.835Z,18.36
2019-05-22T16:20:44.379Z,18.38
2019-05-22T16:23:25.896Z,18.33
2019-05-22T16:25:55.772Z,18.27
2019-05-22T16:28:24.891Z,18.32
2019-05-22T16:30:53.725Z,18.30
2019-05-22T16:33:23.940Z,18.26
2019-05-22T16:35:52.974Z,18.15
2019-05-22T16:38:23.498Z,18.11
2019-05-22T16:40:52.237Z,18.18
2019-05-22T16:43:22.634Z,18.13
2019-05-22T16:45:52.448Z,18.10
2019-05-22T16:48:29.134Z,18.06
2019-05-22T16:50:56.031Z,18.00
2019-05-22T16:56:34.540Z,17.97
2019-05-22T17:01:58.732Z,18.01
2019-05-22T17:04:17.306Z,17.99
2019-05-22T17:06:46.140Z,17.96
2019-05-22T17:09:16.530Z,17.92
2019-05-22T17:11:45.960Z,17.90
2019-05-22T17:14:15.636Z,17.81
2019-05-22T17:16:44.713Z,17.75
2019-05-22T17:19:26.570Z,17.66
2019-05-22T17:21:45.397Z,17.55
2019-05-22T17:24:14.257Z,17.35
2019-05-22T17:26:44.050Z,17.22
2019-05-22T17:29:12.873Z,17.10
2019-05-22T17:31:41.493Z,16.90
2019-05-22T17:34:27.864Z,16.71
2019-05-22T17:36:57.354Z,16.56
2019-05-22T17:39:27.886Z,16.36
2019-05-22T17:41:57.085Z,16.31
2019-05-22T17:44:27.320Z,16.21
2019-05-22T17:46:56.178Z,16.08
2019-05-22T17:49:25.194Z,16.03
2019-05-22T17:51:53.847Z,15.94
2019-05-22T17:54:22.840Z,15.83
2019-05-22T17:56:52.264Z,15.83
2019-05-22T17:59:21.007Z,15.87
2019-05-22T18:01:49.769Z,15.86
2019-05-22T18:04:18.449Z,15.71
2019-05-22T18:06:47.063Z,15.63
2019-05-22T18:09:16.045Z,15.54
2019-05-22T18:11:44.704Z,15.45
2019-05-22T18:14:13.697Z,15.42
2019-05-22T18:16:42.463Z,15.40
2019-05-22T18:19:11.489Z,15.39
2019-05-22T18:21:41.233Z,15.37
2019-05-22T18:24:10.776Z,15.36
2019-05-22T18:26:39.285Z,15.39
2019-05-22T18:29:08.078Z,15.37
2019-05-22T18:31:36.915Z,15.33
2019-05-22T18:34:05.576Z,15.37
2019-05-22T18:36:34.348Z,15.36
2019-05-22T18:39:02.911Z,15.30
2019-05-22T18:41:31.477Z,15.29
2019-05-22T18:44:00.545Z,15.27
2019-05-22T18:46:29.382Z,15.26
2019-05-22T18:48:58.037Z,15.22
2019-05-22T18:51:26.718Z,15.17
2019-05-22T18:53:55.331Z,15.10
2019-05-22T18:56:23.953Z,15.16
2019-05-22T18:58:53.458Z,15.12
2019-05-22T19:01:22.259Z,15.03
2019-05-22T19:03:50.761Z,15.00
2019-05-22T19:06:29.640Z,14.90
2019-05-22T19:08:50.081Z,14.89
2019-05-22T19:11:18.750Z,14.81
2019-05-22T19:13:47.282Z,14.75
2019-05-22T19:16:15.818Z,14.72
2019-05-22T19:18:44.382Z,14.73
2019-05-22T19:21:13.061Z,14.71
2019-05-22T19:23:41.754Z,14.69
2019-05-22T19:26:10.379Z,14.70
2019-05-22T19:28:43.855Z,14.68
2019-05-22T19:31:10.135Z,14.64
2019-05-22T19:33:38.796Z,14.58
2019-05-22T19:36:07.420Z,14.51
2019-05-22T19:38:36.269Z,14.46
2019-05-22T19:41:05.193Z,14.44
2019-05-22T19:43:33.762Z,14.43
2019-05-22T19:46:02.690Z,14.39
2019-05-22T19:48:31.317Z,14.38
2019-05-22T19:51:02.077Z,14.33
2019-05-22T19:53:31.399Z,14.32
2019-05-22T19:56:00.143Z,14.33
2019-05-22T19:58:28.655Z,14.30
2019-05-22T20:00:57.433Z,14.29
2019-05-22T20:03:26.657Z,14.30
2019-05-22T20:05:55.512Z,14.28
2019-05-22T20:08:24.152Z,14.20
2019-05-22T20:10:52.984Z,14.17
2019-05-22T20:13:23.697Z,14.13
2019-05-22T20:15:52.433Z,14.10
2019-05-22T20:18:21.547Z,14.13
2019-05-22T20:20:50.181Z,14.13
2019-05-22T20:23:34.295Z,14.08
2019-05-22T20:25:50.239Z,14.04
2019-05-22T20:28:19.788Z,13.94
2019-05-22T20:30:48.775Z,13.73
2019-05-22T20:33:17.734Z,13.67
2019-05-22T20:35:46.297Z,13.64
2019-05-22T20:38:15.416Z,13.66
2019-05-22T20:40:44.078Z,13.70
2019-05-22T20:43:12.891Z,13.72
2019-05-22T20:45:43.401Z,13.77
2019-05-22T20:48:15.454Z,13.77
2019-05-22T20:50:44.218Z,13.76
2019-05-22T20:53:14.343Z,13.75
2019-05-22T20:55:43.658Z,13.76
2019-05-22T20:58:14.338Z,13.81
2019-05-22T21:00:43.578Z,13.83
2019-05-22T21:03:12.327Z,13.78
2019-05-22T21:05:42.737Z,13.70
2019-05-22T21:08:16.054Z,13.61
2019-05-22T21:10:47.571Z,13.49
2019-05-22T21:13:16.895Z,13.47
2019-05-22T21:15:46.619Z,13.43
2019-05-22T21:18:17.310Z,13.45
2019-05-22T21:20:54.660Z,13.43
2019-05-22T21:23:16.856Z,13.45
2019-05-22T21:25:45.798Z,13.44
2019-05-22T21:28:14.609Z,13.42
2019-05-22T21:30:43.612Z,13.36
2019-05-22T21:33:12.568Z,13.26
2019-05-22T21:35:41.191Z,13.20
2019-05-22T21:38:11.443Z,13.12
2019-05-22T21:40:40.421Z,13.07
2019-05-22T21:43:08.959Z,13.07
2019-05-22T21:45:37.498Z,13.01
2019-05-22T21:48:06.666Z,13.02
2019-05-22T21:50:35.193Z,12.97
2019-05-22T21:53:06.249Z,13.02
2019-05-22T21:55:35.270Z,13.00
2019-05-22T21:58:05.569Z,12.93
2019-05-22T22:00:44.531Z,12.88
2019-05-22T22:03:19.332Z,12.85
2019-05-22T22:05:48.333Z,12.85
2019-05-22T22:08:16.996Z,12.86
2019-05-22T22:10:46.322Z,12.87
2019-05-22T22:13:15.127Z,12.91
2019-05-22T22:15:44.395Z,12.90
2019-05-22T22:18:13.270Z,12.88
2019-05-22T22:20:43.201Z,12.90
2019-05-22T22:23:15.209Z,12.89
2019-05-22T22:25:44.097Z,12.92
2019-05-22T22:28:15.452Z,12.89
2019-05-22T22:30:55.126Z,12.84
2019-05-22T22:33:27.255Z,12.77
2019-05-22T22:35:56.895Z,12.80
2019-05-22T22:38:27.769Z,12.77
2019-05-22T22:40:57.375Z,12.75
2019-05-22T22:43:32.547Z,12.70
2019-05-22T22:46:19.572Z,12.71
2019-05-22T22:48:51.732Z,12.69
2019-05-22T22:51:21.045Z,12.68
2019-05-22T22:53:50.251Z,12.61
2019-05-22T22:56:20.783Z,12.48
2019-05-22T22:58:49.324Z,12.40
2019-05-22T23:01:21.280Z,12.44
2019-05-22T23:03:51.920Z,12.43
2019-05-22T23:06:20.715Z,12.39
2019-05-22T23:08:50.258Z,12.32
2019-05-22T23:11:20.904Z,12.34
2019-05-22T23:13:49.870Z,12.29
2019-05-22T23:16:21.022Z,12.26
2019-05-22T23:19:01.969Z,12.15
2019-05-22T23:21:30.418Z,12.12
2019-05-22T23:23:58.629Z,12.10
2019-05-22T23:26:27.589Z,12.00
2019-05-22T23:28:56.140Z,11.94
2019-05-22T23:31:25.229Z,11.88
2019-05-22T23:33:53.764Z,11.94
2019-05-22T23:36:23.259Z,11.92
2019-05-22T23:38:52.922Z,11.87
2019-05-22T23:41:23.334Z,11.90
2019-05-22T23:43:52.334Z,11.93
2019-05-22T23:46:22.695Z,11.92
2019-05-22T23:48:51.734Z,11.87
2019-05-22T23:51:20.716Z,11.83
2019-05-22T23:53:50.869Z,11.84
2019-05-22T23:56:20.263Z,11.88
2019-05-22T23:58:52.757Z,11.92
